Time;durP1;ratioP1;P1;durP2;ratioP2;P2;SDS_P1;SDS_P2;PMS_P1;PMS_P2;Temp;Humidity;BMP_temperature;BMP_pressure;BME280_temperature;BME280_humidity;BME280_pressure;Samples;Min_cycle;Max_cycle;Signal;HPM_P1;HPM_P2
2023/04/16 00:00:23;;;;;;;45.05;30.90;;;8.90;99.90;;;;;;5060564;28;20412;-79
2023/04/16 00:02:50;;;;;;;41.30;28.13;;;9.00;99.90;;;;;;5057638;28;20024;-80
2023/04/16 00:05:15;;;;;;;48.40;33.13;;;9.00;99.90;;;;;;5057406;28;20362;-80
2023/04/16 00:07:41;;;;;;;46.88;31.90;;;9.00;99.90;;;;;;5057537;28;20039;-79
2023/04/16 00:10:07;;;;;;;44.78;32.65;;;9.00;99.90;;;;;;5059749;28;20402;-80
2023/04/16 00:12:32;;;;;;;52.60;32.92;;;9.00;99.90;;;;;;5065618;28;20075;-80
2023/04/16 00:14:58;;;;;;;46.40;32.00;;;9.00;99.90;;;;;;5067761;28;20064;-80
2023/04/16 00:17:24;;;;;;;42.10;28.95;;;9.00;99.90;;;;;;5064888;28;20024;-80
2023/04/16 00:19:49;;;;;;;46.20;30.38;;;9.00;99.90;;;;;;5063612;28;20055;-80
2023/04/16 00:22:15;;;;;;;47.83;32.38;;;8.90;99.90;;;;;;5055826;28;20092;-80
2023/04/16 00:24:43;;;;;;;42.40;31.02;;;8.90;99.90;;;;;;5060731;28;20475;-79
2023/04/16 00:27:09;;;;;;;44.15;30.98;;;9.00;99.90;;;;;;5053337;28;20025;-79
2023/04/16 00:29:35;;;;;;;47.65;33.53;;;8.90;99.90;;;;;;5061188;28;20024;-80
2023/04/16 00:32:00;;;;;;;42.35;31.80;;;8.90;99.90;;;;;;5066615;28;20024;-79
2023/04/16 00:34:26;;;;;;;41.25;29.08;;;9.00;99.90;;;;;;5059319;28;20037;-80
2023/04/16 00:36:51;;;;;;;38.58;28.40;;;9.00;99.90;;;;;;5062748;28;20354;-81
2023/04/16 00:39:18;;;;;;;40.47;28.92;;;9.00;99.90;;;;;;5054306;28;20085;-80
2023/04/16 00:41:48;;;;;;;37.47;27.40;;;9.00;99.90;;;;;;5069440;28;20017;-83
2023/04/16 00:44:13;;;;;;;30.63;23.88;;;9.00;99.90;;;;;;5061233;28;20028;-80
2023/04/16 00:46:40;;;;;;;39.47;29.75;;;8.90;99.90;;;;;;5055697;28;20104;-80
2023/04/16 00:49:06;;;;;;;36.22;26.98;;;9.00;99.90;;;;;;5050903;28;20033;-80
2023/04/16 00:51:32;;;;;;;41.90;28.60;;;8.90;99.90;;;;;;5050290;28;20025;-79
2023/04/16 00:53:57;;;;;;;43.08;31.17;;;8.90;99.90;;;;;;5042523;28;20115;-79
2023/04/16 00:56:24;;;;;;;45.90;31.55;;;8.90;99.90;;;;;;5059217;28;20020;-80
2023/04/16 00:58:50;;;;;;;49.13;34.05;;;8.90;99.90;;;;;;5043097;28;20070;-81
2023/04/16 01:01:15;;;;;;;50.55;33.80;;;8.90;99.90;;;;;;5049088;28;20454;-80
2023/04/16 01:03:46;;;;;;;56.80;39.05;;;8.80;99.90;;;;;;5047662;28;20025;-80
2023/04/16 01:06:12;;;;;;;55.35;38.63;;;8.90;99.90;;;;;;5055459;28;20055;-80
2023/04/16 01:08:37;;;;;;;69.30;42.00;;;8.90;99.90;;;;;;5050959;28;20021;-80
2023/04/16 01:11:03;;;;;;;67.38;43.88;;;8.80;99.90;;;;;;5048366;28;20085;-81
2023/04/16 01:13:29;;;;;;;70.32;43.42;;;8.80;99.90;;;;;;5050237;28;20109;-79
2023/04/16 01:15:55;;;;;;;77.32;46.75;;;8.80;99.90;;;;;;5042430;28;20045;-80
2023/04/16 01:18:22;;;;;;;78.40;48.33;;;8.80;99.90;;;;;;5045659;28;20027;-80
2023/04/16 01:20:51;;;;;;;78.05;49.28;;;8.80;99.90;;;;;;5054420;28;20427;-80
2023/04/16 01:23:17;;;;;;;80.20;46.65;;;8.80;99.90;;;;;;5042191;28;20458;-79
2023/04/16 01:25:44;;;;;;;73.90;46.88;;;8.80;99.90;;;;;;5045766;28;20025;-80
2023/04/16 01:28:10;;;;;;;73.97;48.30;;;8.80;99.90;;;;;;5051199;28;20385;-81
2023/04/16 01:30:35;;;;;;;70.45;44.33;;;8.70;99.90;;;;;;5042778;28;20112;-79
2023/04/16 01:33:01;;;;;;;73.03;43.58;;;8.80;99.90;;;;;;5048910;28;20189;-80
2023/04/16 01:35:27;;;;;;;70.20;45.38;;;8.80;99.90;;;;;;5039035;28;20504;-80
2023/04/16 01:37:52;;;;;;;73.50;46.75;;;8.80;99.90;;;;;;5055203;28;20028;-80
2023/04/16 01:40:18;;;;;;;78.55;48.38;;;8.80;99.90;;;;;;5054995;28;20369;-80
2023/04/16 01:42:44;;;;;;;75.47;48.70;;;8.70;99.90;;;;;;5053010;28;20017;-82
2023/04/16 01:45:10;;;;;;;73.47;45.90;;;8.70;99.90;;;;;;5054161;28;20032;-80
2023/04/16 01:47:36;;;;;;;82.10;48.30;;;8.70;99.90;;;;;;5051592;28;20021;-80
2023/04/16 01:50:02;;;;;;;83.43;50.00;;;8.70;99.90;;;;;;5048072;28;20025;-80
2023/04/16 01:52:28;;;;;;;83.72;50.85;;;8.70;99.90;;;;;;5043231;28;20045;-80
2023/04/16 01:54:56;;;;;;;72.55;44.17;;;8.70;99.90;;;;;;5059117;28;20134;-80
2023/04/16 01:57:22;;;;;;;83.45;49.70;;;8.70;99.90;;;;;;5042512;28;20048;-80
2023/04/16 01:59:48;;;;;;;93.25;55.88;;;8.60;99.90;;;;;;5057443;28;21375;-80
2023/04/16 02:02:15;;;;;;;92.28;53.00;;;8.70;99.90;;;;;;5053185;28;20017;-80
2023/04/16 02:04:46;;;;;;;94.57;54.97;;;8.60;99.90;;;;;;5045642;28;20045;-80
2023/04/16 02:07:12;;;;;;;86.32;52.08;;;8.60;99.90;;;;;;5049304;28;20028;-79
2023/04/16 02:13:36;;;;;;;80.95;50.65;;;8.60;99.90;;;;;;5054827;28;20074;-79
2023/04/16 02:19:23;;;;;;;93.22;53.00;;;8.60;99.90;;;;;;5054457;28;20039;-79
2023/04/16 02:25:13;;;;;;;86.35;50.33;;;8.60;99.90;;;;;;5049645;28;20237;-78
2023/04/16 02:31:00;;;;;;;89.60;50.60;;;8.60;99.90;;;;;;5074451;28;20031;-79
2023/04/16 02:40:22;;;;;;;94.05;51.17;;;8.60;99.90;;;;;;5074335;28;20419;-79
2023/04/16 02:46:10;;;;;;;72.72;47.70;;;8.50;99.90;;;;;;5054201;28;20378;-79
2023/04/16 02:51:57;;;;;;;75.55;44.13;;;8.50;99.90;;;;;;5034217;28;20028;-79
2023/04/16 02:57:45;;;;;;;77.93;47.03;;;8.40;99.90;;;;;;5034058;28;20021;-79
2023/04/16 03:03:33;;;;;;;75.00;46.90;;;8.40;99.90;;;;;;5034009;28;20020;-79
2023/04/16 03:09:20;;;;;;;77.40;46.65;;;8.40;99.90;;;;;;5033331;28;20101;-79
2023/04/16 03:11:46;;;;;;;75.50;45.03;;;8.40;99.90;;;;;;5036923;28;20108;-79
2023/04/16 03:14:11;;;;;;;77.57;46.92;;;8.40;99.90;;;;;;5041439;28;20048;-79
2023/04/16 03:16:37;;;;;;;76.05;47.47;;;8.40;99.90;;;;;;5041440;28;20056;-79
2023/04/16 03:19:03;;;;;;;78.93;45.80;;;8.40;99.90;;;;;;5045384;28;20036;-80
2023/04/16 03:21:30;;;;;;;77.25;46.72;;;8.30;99.90;;;;;;5051020;28;20025;-79
2023/04/16 03:23:56;;;;;;;76.55;46.42;;;8.30;99.90;;;;;;5045154;28;20473;-79
2023/04/16 03:26:21;;;;;;;71.18;43.40;;;8.30;99.90;;;;;;5030892;28;20087;-80
2023/04/16 03:28:47;;;;;;;83.93;46.90;;;8.30;99.90;;;;;;5044481;28;20020;-80
2023/04/16 03:31:12;;;;;;;70.60;42.13;;;8.40;99.90;;;;;;5040737;28;20033;-80
2023/04/16 03:33:38;;;;;;;71.80;43.47;;;8.40;99.90;;;;;;5053962;28;20079;-80
2023/04/16 03:36:04;;;;;;;88.32;49.63;;;8.40;99.90;;;;;;5051827;28;20076;-78
2023/04/16 03:38:30;;;;;;;73.90;46.47;;;8.40;99.90;;;;;;5050838;28;20103;-80
2023/04/16 03:40:55;;;;;;;81.22;49.97;;;8.40;99.90;;;;;;5051595;28;20578;-79
2023/04/16 03:43:21;;;;;;;83.35;50.00;;;8.40;99.90;;;;;;5050802;28;20017;-79
2023/04/16 03:45:46;;;;;;;85.78;51.45;;;8.40;99.90;;;;;;5043424;28;20021;-80
2023/04/16 03:48:12;;;;;;;86.68;48.85;;;8.40;99.90;;;;;;5043956;28;20086;-79
2023/04/16 03:50:38;;;;;;;84.68;51.33;;;8.40;99.90;;;;;;5046812;28;20105;-79
2023/04/16 03:53:07;;;;;;;85.35;49.60;;;8.40;99.90;;;;;;5051516;28;20080;-80
2023/04/16 03:55:35;;;;;;;79.65;49.63;;;8.40;99.90;;;;;;5044838;28;20021;-79
2023/04/16 03:58:02;;;;;;;97.80;53.67;;;8.40;99.90;;;;;;5055263;28;20052;-80
2023/04/16 04:00:29;;;;;;;101.75;57.08;;;8.40;99.90;;;;;;5043005;28;20141;-79
2023/04/16 04:02:54;;;;;;;91.22;54.50;;;8.40;99.90;;;;;;5049288;28;20050;-79
2023/04/16 04:05:20;;;;;;;108.72;57.60;;;8.40;99.90;;;;;;5046215;28;20116;-78
2023/04/16 04:07:46;;;;;;;92.47;55.30;;;8.40;99.90;;;;;;5048541;28;20012;-79
2023/04/16 04:10:11;;;;;;;92.90;55.17;;;8.40;99.90;;;;;;5047964;28;20478;-79
2023/04/16 04:12:37;;;;;;;95.20;58.13;;;8.30;99.90;;;;;;5044894;28;20044;-79
2023/04/16 04:15:03;;;;;;;104.47;59.65;;;8.30;99.90;;;;;;5051203;28;20040;-80
2023/04/16 04:17:29;;;;;;;102.18;58.45;;;8.30;99.90;;;;;;5047924;28;20029;-80
2023/04/16 04:19:54;;;;;;;100.13;57.45;;;8.30;99.90;;;;;;5037540;28;20079;-80
2023/04/16 04:22:20;;;;;;;105.70;59.40;;;8.20;99.90;;;;;;5052541;28;20407;-80
2023/04/16 04:24:45;;;;;;;114.03;61.92;;;8.20;99.90;;;;;;5050671;28;20044;-80
2023/04/16 04:27:11;;;;;;;107.68;60.63;;;8.20;99.90;;;;;;5051056;28;20056;-80
2023/04/16 04:29:37;;;;;;;99.57;56.38;;;8.20;99.90;;;;;;5048571;28;20463;-80
2023/04/16 04:32:02;;;;;;;99.95;57.05;;;8.10;99.90;;;;;;5046734;28;20025;-80
2023/04/16 04:34:28;;;;;;;108.05;64.28;;;8.20;99.90;;;;;;5043214;28;20041;-80
2023/04/16 04:36:58;;;;;;;123.55;63.20;;;8.10;99.90;;;;;;5044996;28;20059;-81
2023/04/16 04:39:24;;;;;;;113.60;62.20;;;8.20;99.90;;;;;;5048160;28;20029;-80
2023/04/16 04:41:49;;;;;;;104.03;60.53;;;8.10;99.90;;;;;;5051082;28;20032;-80
2023/04/16 04:44:15;;;;;;;97.13;58.92;;;8.10;99.90;;;;;;5052537;28;20120;-80
2023/04/16 04:46:41;;;;;;;92.70;56.42;;;8.10;99.90;;;;;;5045723;28;20017;-80
2023/04/16 04:49:06;;;;;;;87.00;52.88;;;8.00;99.90;;;;;;5040905;28;20690;-80
2023/04/16 04:51:32;;;;;;;96.95;55.08;;;8.00;99.90;;;;;;5046398;28;20039;-80
2023/04/16 04:53:57;;;;;;;111.43;62.03;;;8.00;99.90;;;;;;5046531;28;20025;-80
2023/04/16 04:56:23;;;;;;;104.50;57.38;;;8.00;99.90;;;;;;5046319;28;20041;-80
2023/04/16 04:58:50;;;;;;;103.43;62.03;;;8.00;99.90;;;;;;5049900;28;20059;-81
2023/04/16 05:01:15;;;;;;;108.10;64.28;;;8.00;99.90;;;;;;5044345;28;20021;-80
2023/04/16 05:03:41;;;;;;;107.75;62.15;;;8.00;99.90;;;;;;5049684;28;20032;-80
2023/04/16 05:06:07;;;;;;;115.63;64.25;;;8.00;99.90;;;;;;5046744;28;20033;-81
2023/04/16 05:08:32;;;;;;;117.18;63.75;;;8.00;99.90;;;;;;5041389;28;20017;-81
2023/04/16 05:10:59;;;;;;;108.78;61.15;;;8.00;99.90;;;;;;5046733;28;20033;-80
2023/04/16 05:13:25;;;;;;;129.18;64.60;;;7.90;99.90;;;;;;5049623;28;20035;-80
2023/04/16 05:15:50;;;;;;;111.57;63.40;;;7.90;99.90;;;;;;5050041;28;20124;-80
2023/04/16 05:18:16;;;;;;;129.88;61.90;;;7.90;99.90;;;;;;5041876;28;20052;-80
2023/04/16 05:20:41;;;;;;;104.05;57.53;;;7.90;99.90;;;;;;5043725;28;20031;-80
2023/04/16 05:23:07;;;;;;;108.57;58.22;;;7.90;99.90;;;;;;5050997;28;20513;-80
2023/04/16 05:25:33;;;;;;;105.47;56.97;;;7.90;99.90;;;;;;5043686;28;20063;-80
2023/04/16 05:28:01;;;;;;;100.63;57.15;;;7.90;99.90;;;;;;5048538;28;20026;-80
2023/04/16 05:30:27;;;;;;;99.10;55.53;;;7.80;99.90;;;;;;5040534;28;20072;-80
2023/04/16 05:32:52;;;;;;;82.38;46.92;;;7.90;99.90;;;;;;5044278;28;20056;-80
2023/04/16 05:35:18;;;;;;;70.65;42.35;;;7.90;99.90;;;;;;5044389;28;20029;-80
2023/04/16 05:37:44;;;;;;;69.32;41.72;;;7.80;99.90;;;;;;5037210;28;20121;-79
2023/04/16 05:40:13;;;;;;;57.80;35.90;;;7.80;99.90;;;;;;5040847;28;20029;-81
2023/04/16 05:42:38;;;;;;;63.88;38.33;;;7.70;99.90;;;;;;5042787;28;20474;-80
2023/04/16 05:45:05;;;;;;;58.28;36.70;;;7.70;99.90;;;;;;5042692;28;20091;-80
2023/04/16 05:47:31;;;;;;;56.28;33.95;;;7.70;99.90;;;;;;5048937;28;20107;-80
2023/04/16 05:49:56;;;;;;;54.85;36.75;;;7.70;99.90;;;;;;5038990;28;20100;-81
2023/04/16 05:52:22;;;;;;;59.88;36.33;;;7.70;99.90;;;;;;5044691;28;20032;-80
2023/04/16 05:54:48;;;;;;;51.60;33.95;;;7.70;99.90;;;;;;5044888;28;20280;-79
2023/04/16 05:57:13;;;;;;;56.30;34.78;;;7.60;99.90;;;;;;5037312;28;20024;-80
2023/04/16 05:59:39;;;;;;;55.15;33.72;;;7.60;99.90;;;;;;5043367;28;20348;-80
2023/04/16 06:02:06;;;;;;;53.95;34.38;;;7.60;99.90;;;;;;5038375;28;20094;-80
2023/04/16 06:04:31;;;;;;;50.65;33.08;;;7.70;99.90;;;;;;5039735;28;20042;-79
2023/04/16 06:06:57;;;;;;;49.83;32.20;;;7.60;99.90;;;;;;5049457;28;20054;-79
2023/04/16 06:09:23;;;;;;;49.30;32.35;;;7.60;99.90;;;;;;5043668;28;20078;-79
2023/04/16 06:11:49;;;;;;;48.92;31.65;;;7.60;99.90;;;;;;5042730;28;20029;-80
2023/04/16 06:14:15;;;;;;;48.22;32.20;;;7.60;99.90;;;;;;5043467;28;20039;-79
2023/04/16 06:16:40;;;;;;;53.03;31.83;;;7.60;99.90;;;;;;5041282;28;20359;-79
2023/04/16 06:19:09;;;;;;;61.78;33.83;;;7.60;99.90;;;;;;5051240;28;20060;-81
2023/04/16 06:21:36;;;;;;;47.58;30.65;;;7.60;99.90;;;;;;5043566;28;20166;-79
2023/04/16 06:24:02;;;;;;;51.00;33.30;;;7.60;99.90;;;;;;5043560;28;20469;-80
2023/04/16 06:26:27;;;;;;;50.08;32.70;;;7.60;99.90;;;;;;5040030;28;20028;-79
2023/04/16 06:28:53;;;;;;;56.15;33.05;;;7.60;99.90;;;;;;5050455;28;20036;-79
2023/04/16 06:31:19;;;;;;;52.63;32.95;;;7.70;99.90;;;;;;5045575;28;20029;-79
2023/04/16 06:33:45;;;;;;;47.42;31.23;;;7.60;99.90;;;;;;5045530;28;20025;-79
2023/04/16 06:36:11;;;;;;;54.67;33.40;;;7.60;99.90;;;;;;5044352;28;20091;-79
2023/04/16 06:38:36;;;;;;;50.47;30.00;;;7.60;99.90;;;;;;5041697;28;20481;-79
2023/04/16 06:41:09;;;;;;;54.10;33.50;;;7.60;99.90;;;;;;5035799;28;20084;-79
2023/04/16 06:43:34;;;;;;;45.00;29.63;;;7.60;99.90;;;;;;5038809;28;20105;-79
2023/04/16 06:46:00;;;;;;;41.05;26.08;;;7.60;99.90;;;;;;5043913;28;20492;-80
2023/04/16 06:48:26;;;;;;;49.13;30.60;;;7.50;99.90;;;;;;5041414;28;20029;-81
2023/04/16 06:50:52;;;;;;;49.97;31.25;;;7.50;99.90;;;;;;5039189;28;20036;-78
2023/04/16 06:53:17;;;;;;;53.05;31.48;;;7.60;99.90;;;;;;5045850;28;20378;-80
2023/04/16 06:55:43;;;;;;;49.05;31.73;;;7.50;99.90;;;;;;5047384;28;20040;-79
2023/04/16 06:58:10;;;;;;;50.60;32.30;;;7.50;99.90;;;;;;5039184;28;20024;-79
2023/04/16 07:00:35;;;;;;;47.05;30.30;;;7.50;99.90;;;;;;5047389;28;20469;-78
2023/04/16 07:03:02;;;;;;;47.22;30.55;;;7.50;99.90;;;;;;5050906;28;20059;-79
2023/04/16 07:05:27;;;;;;;43.22;28.73;;;7.50;99.90;;;;;;5047019;28;20465;-79
2023/04/16 07:07:55;;;;;;;51.17;31.67;;;7.50;99.90;;;;;;5050402;28;20024;-79
2023/04/16 07:10:20;;;;;;;56.35;34.30;;;7.40;99.90;;;;;;5043845;28;20271;-79
2023/04/16 07:12:46;;;;;;;51.13;30.20;;;7.50;99.90;;;;;;5038981;28;20021;-79
2023/04/16 07:15:11;;;;;;;43.28;28.77;;;7.50;99.90;;;;;;5049794;28;20044;-80
2023/04/16 07:17:37;;;;;;;45.08;29.25;;;7.50;99.90;;;;;;5051556;28;20021;-80
2023/04/16 07:20:04;;;;;;;47.33;29.02;;;7.50;99.90;;;;;;5041447;28;20115;-79
2023/04/16 07:22:29;;;;;;;39.05;25.05;;;7.50;99.90;;;;;;5046186;28;20114;-79
2023/04/16 07:24:55;;;;;;;45.72;27.92;;;7.50;99.90;;;;;;5040141;28;20086;-79
2023/04/16 07:27:21;;;;;;;38.25;25.83;;;7.50;99.90;;;;;;5040251;28;20036;-81
2023/04/16 07:29:49;;;;;;;42.35;26.90;;;7.50;99.90;;;;;;5042466;28;20397;-79
2023/04/16 07:32:14;;;;;;;42.65;26.48;;;7.50;99.90;;;;;;5038344;28;20028;-79
2023/04/16 07:34:40;;;;;;;39.88;25.98;;;7.50;99.90;;;;;;5046807;28;20113;-79
2023/04/16 07:37:08;;;;;;;38.58;25.60;;;7.50;99.90;;;;;;5054832;28;20056;-79
2023/04/16 07:39:37;;;;;;;39.67;25.98;;;7.50;99.90;;;;;;5046683;28;20510;-80
2023/04/16 07:42:02;;;;;;;39.58;25.80;;;7.50;99.90;;;;;;5047065;28;20049;-81
2023/04/16 07:44:28;;;;;;;39.50;25.75;;;7.50;99.90;;;;;;5044539;28;20049;-79
2023/04/16 07:46:54;;;;;;;40.05;25.20;;;7.50;99.90;;;;;;5052031;28;20473;-79
2023/04/16 07:49:19;;;;;;;41.58;25.83;;;7.50;99.90;;;;;;5043632;28;20032;-79
2023/04/16 07:51:46;;;;;;;43.45;26.67;;;7.50;99.90;;;;;;5048479;28;20029;-80
2023/04/16 07:54:11;;;;;;;36.13;24.77;;;7.50;99.90;;;;;;5048876;28;20033;-80
2023/04/16 07:56:37;;;;;;;46.42;28.92;;;7.60;99.90;;;;;;5046441;28;20021;-79
2023/04/16 07:59:02;;;;;;;37.53;25.08;;;7.50;99.90;;;;;;5048516;28;20060;-80
2023/04/16 08:01:28;;;;;;;39.75;26.50;;;7.50;99.90;;;;;;5040965;28;20078;-80
2023/04/16 08:03:54;;;;;;;39.95;26.02;;;7.50;99.90;;;;;;5050569;28;20056;-80
2023/04/16 08:06:19;;;;;;;41.83;27.02;;;7.50;99.90;;;;;;5046335;28;20025;-80
2023/04/16 08:08:45;;;;;;;46.38;28.50;;;7.50;99.90;;;;;;5050618;28;20024;-80
2023/04/16 08:11:11;;;;;;;36.42;24.00;;;7.50;99.90;;;;;;5048778;28;20474;-80
2023/04/16 08:13:36;;;;;;;36.05;24.77;;;7.50;99.90;;;;;;5048564;28;20973;-81
2023/04/16 08:16:02;;;;;;;36.95;25.38;;;7.60;99.90;;;;;;5049305;28;20409;-80
2023/04/16 08:18:27;;;;;;;42.55;25.90;;;7.50;99.90;;;;;;5042631;28;20017;-80
2023/04/16 08:20:54;;;;;;;32.08;23.42;;;7.40;99.90;;;;;;5043110;28;20386;-80
2023/04/16 08:23:20;;;;;;;34.40;23.42;;;7.50;99.90;;;;;;5051444;28;20466;-80
2023/04/16 08:25:46;;;;;;;36.28;23.17;;;7.50;99.90;;;;;;5050403;28;20035;-80
2023/04/16 08:28:12;;;;;;;36.72;24.88;;;7.50;99.90;;;;;;5042560;28;20029;-80
2023/04/16 08:30:37;;;;;;;39.90;26.33;;;7.50;99.90;;;;;;5050736;28;20044;-79
2023/04/16 08:33:03;;;;;;;40.53;26.67;;;7.60;99.90;;;;;;5046475;28;20267;-80
2023/04/16 08:35:28;;;;;;;35.35;23.45;;;7.60;99.90;;;;;;5053904;28;20049;-80
2023/04/16 08:37:56;;;;;;;41.00;26.35;;;7.60;99.90;;;;;;5042249;28;20058;-80
2023/04/16 08:40:24;;;;;;;44.47;30.13;;;7.60;99.90;;;;;;5055697;28;20028;-80
2023/04/16 08:42:57;;;;;;;48.75;30.92;;;7.50;99.90;;;;;;5055178;28;20116;-80
2023/04/16 08:45:25;;;;;;;58.90;34.00;;;7.60;99.90;;;;;;5043834;28;20171;-80
2023/04/16 08:47:52;;;;;;;48.78;31.17;;;7.60;99.90;;;;;;5053624;28;20489;-80
2023/04/16 08:50:25;;;;;;;50.30;31.83;;;7.60;99.90;;;;;;5051090;28;20023;-80
2023/04/16 08:52:56;;;;;;;53.63;32.45;;;7.60;99.90;;;;;;5049777;28;20060;-79
2023/04/16 08:55:29;;;;;;;61.95;37.58;;;7.50;99.90;;;;;;5054828;28;20036;-80
2023/04/16 08:58:00;;;;;;;64.72;37.95;;;7.50;99.90;;;;;;5047092;28;20041;-81
2023/04/16 09:00:27;;;;;;;64.60;38.55;;;7.50;99.90;;;;;;5035978;28;20029;-79
2023/04/16 09:02:52;;;;;;;70.97;41.35;;;7.60;99.90;;;;;;5040994;28;20029;-80
2023/04/16 09:05:24;;;;;;;61.92;35.85;;;7.50;99.90;;;;;;5039493;28;20024;-79
2023/04/16 09:07:51;;;;;;;64.18;38.20;;;7.50;99.90;;;;;;5057191;28;20047;-80
2023/04/16 09:10:18;;;;;;;60.83;37.60;;;7.50;99.90;;;;;;5052310;28;20028;-80
2023/04/16 09:12:44;;;;;;;73.78;44.90;;;7.50;99.90;;;;;;5048675;28;20119;-80
2023/04/16 09:15:11;;;;;;;76.97;45.90;;;7.50;99.90;;;;;;5046497;28;20119;-80
2023/04/16 09:17:36;;;;;;;64.57;37.33;;;7.50;99.90;;;;;;5055887;28;20102;-80
2023/04/16 09:20:09;;;;;;;67.65;37.90;;;7.50;99.90;;;;;;5053764;28;20470;-80
2023/04/16 09:22:36;;;;;;;59.60;35.17;;;7.50;99.90;;;;;;5059894;28;20070;-79
2023/04/16 09:25:13;;;;;;;61.10;35.83;;;7.50;99.90;;;;;;5052800;28;20112;-80
2023/04/16 09:27:39;;;;;;;59.03;34.88;;;7.50;99.90;;;;;;5035166;28;20028;-80
2023/04/16 09:30:22;;;;;;;57.28;34.50;;;7.50;99.90;;;;;;5047861;28;20033;-80
2023/04/16 09:32:49;;;;;;;50.85;30.60;;;7.50;99.90;;;;;;5058515;28;20036;-80
2023/04/16 09:35:21;;;;;;;64.10;38.20;;;7.50;99.90;;;;;;5041703;28;20044;-80
2023/04/16 09:37:56;;;;;;;64.88;38.15;;;7.60;99.90;;;;;;5042915;28;20421;-80
2023/04/16 09:40:29;;;;;;;63.67;37.22;;;7.50;99.90;;;;;;5046717;28;20059;-80
2023/04/16 09:42:59;;;;;;;69.55;39.95;;;7.50;99.90;;;;;;5050298;28;20067;-80
2023/04/16 09:45:29;;;;;;;70.05;41.20;;;7.50;99.90;;;;;;5039939;28;20025;-80
2023/04/16 09:48:03;;;;;;;78.10;43.05;;;7.50;99.90;;;;;;5040912;28;20021;-81
2023/04/16 09:50:28;;;;;;;78.43;42.83;;;7.50;99.90;;;;;;5047134;28;20033;-80
2023/04/16 09:52:54;;;;;;;81.75;43.25;;;7.50;99.90;;;;;;5057360;28;21094;-80
2023/04/16 09:55:26;;;;;;;90.47;45.72;;;7.50;99.90;;;;;;5038845;28;20473;-80
2023/04/16 09:57:59;;;;;;;88.78;46.90;;;7.50;99.90;;;;;;5046280;28;20033;-80
2023/04/16 10:00:25;;;;;;;91.25;48.22;;;7.50;99.90;;;;;;5038537;28;20036;-80
2023/04/16 10:03:05;;;;;;;90.13;48.83;;;7.50;99.90;;;;;;5044262;28;20081;-80
2023/04/16 10:05:32;;;;;;;90.85;47.75;;;7.50;99.90;;;;;;5043210;28;20059;-80
2023/04/16 10:08:01;;;;;;;85.40;46.05;;;7.50;99.90;;;;;;5048666;28;20025;-80
2023/04/16 10:10:27;;;;;;;90.82;48.30;;;7.50;99.90;;;;;;5056336;28;20128;-80
2023/04/16 10:12:57;;;;;;;94.93;49.35;;;7.50;99.90;;;;;;5044289;28;20040;-81
2023/04/16 10:15:23;;;;;;;101.40;51.45;;;7.50;99.90;;;;;;5034597;28;20067;-80
2023/04/16 10:17:51;;;;;;;87.82;48.58;;;7.50;99.90;;;;;;5032176;28;20053;-80
2023/04/16 10:20:17;;;;;;;96.85;50.03;;;7.50;99.90;;;;;;5045096;28;20029;-80
2023/04/16 10:22:43;;;;;;;100.45;51.38;;;7.50;99.90;;;;;;5035278;28;20028;-81
2023/04/16 10:25:11;;;;;;;104.88;52.13;;;7.50;99.90;;;;;;5049066;28;20056;-81
2023/04/16 10:27:38;;;;;;;98.72;51.33;;;7.50;99.90;;;;;;5034016;28;23171;-80
2023/04/16 10:30:08;;;;;;;114.28;53.38;;;7.50;99.90;;;;;;5060658;28;20461;-80
2023/04/16 10:32:36;;;;;;;106.47;52.78;;;7.40;99.90;;;;;;5046064;28;20067;-81
2023/04/16 10:35:03;;;;;;;94.15;49.03;;;7.50;99.90;;;;;;5046377;28;20041;-80
2023/04/16 10:37:32;;;;;;;107.57;52.20;;;7.50;99.90;;;;;;5039825;28;20077;-81
2023/04/16 10:39:58;;;;;;;106.97;48.60;;;7.50;99.90;;;;;;5055107;28;20443;-80
2023/04/16 10:42:26;;;;;;;102.55;50.97;;;7.50;99.90;;;;;;5050218;28;20036;-81
2023/04/16 10:44:51;;;;;;;88.85;47.92;;;7.50;99.90;;;;;;5043385;28;20045;-81
2023/04/16 10:47:17;;;;;;;102.55;50.33;;;7.50;99.90;;;;;;5054834;28;20028;-81
2023/04/16 10:49:43;;;;;;;99.50;49.63;;;7.50;99.90;;;;;;5033044;28;20030;-81
2023/04/16 10:52:15;;;;;;;99.95;49.75;;;7.50;99.90;;;;;;5035897;28;20033;-81
2023/04/16 10:54:41;;;;;;;114.40;51.90;;;7.50;99.90;;;;;;5047765;28;20055;-81
2023/04/16 10:57:14;;;;;;;107.28;52.13;;;7.50;99.90;;;;;;5045248;28;20377;-80
2023/04/16 10:59:42;;;;;;;106.82;51.13;;;7.50;99.90;;;;;;5045969;28;20110;-81
2023/04/16 11:02:13;;;;;;;112.43;52.45;;;7.50;99.90;;;;;;5051420;28;20040;-81
2023/04/16 11:04:42;;;;;;;90.90;48.92;;;7.50;99.90;;;;;;5038745;28;20033;-80
2023/04/16 11:07:10;;;;;;;104.32;51.47;;;7.50;99.90;;;;;;5055031;28;20397;-81
2023/04/16 11:09:55;;;;;;;97.90;48.55;;;7.50;99.90;;;;;;5042491;28;20079;-80
2023/04/16 11:12:41;;;;;;;91.15;45.88;;;7.50;99.90;;;;;;5035054;28;20029;-81
2023/04/16 11:15:09;;;;;;;93.10;44.13;;;7.50;99.90;;;;;;5052393;28;20049;-81
2023/04/16 11:17:49;;;;;;;77.80;41.92;;;7.50;99.90;;;;;;5044135;28;20053;-81
2023/04/16 11:20:21;;;;;;;81.85;43.13;;;7.50;99.90;;;;;;5032387;28;20028;-80
2023/04/16 11:22:55;;;;;;;80.43;41.78;;;7.50;99.90;;;;;;5042826;28;20078;-82
2023/04/16 11:25:21;;;;;;;77.03;40.50;;;7.50;99.90;;;;;;5043855;28;20036;-80
2023/04/16 11:27:51;;;;;;;76.82;39.28;;;7.60;99.90;;;;;;5051992;28;20107;-80
2023/04/16 11:30:17;;;;;;;71.35;39.30;;;7.60;99.90;;;;;;5032714;28;20136;-81
2023/04/16 11:32:46;;;;;;;80.15;40.28;;;7.60;99.90;;;;;;5057096;28;20024;-81
2023/04/16 11:35:21;;;;;;;79.00;41.47;;;7.60;99.90;;;;;;5049135;28;20046;-83
2023/04/16 11:37:47;;;;;;;63.42;34.92;;;7.60;99.90;;;;;;5063087;28;20139;-81
2023/04/16 11:40:13;;;;;;;73.47;40.03;;;7.60;99.90;;;;;;5042981;28;20028;-81
2023/04/16 11:42:40;;;;;;;67.63;37.92;;;7.60;99.90;;;;;;5045809;28;20044;-80
2023/04/16 11:45:10;;;;;;;76.85;39.92;;;7.70;99.90;;;;;;5046412;28;20052;-80
2023/04/16 11:47:52;;;;;;;75.30;40.08;;;7.60;99.90;;;;;;5063406;28;20033;-81
2023/04/16 11:50:19;;;;;;;79.15;40.95;;;7.60;99.90;;;;;;5041952;28;20486;-82
2023/04/16 11:52:46;;;;;;;79.20;41.38;;;7.70;99.90;;;;;;5049237;28;20085;-81
2023/04/16 11:55:12;;;;;;;75.75;40.47;;;7.70;99.90;;;;;;5040900;28;20494;-81
2023/04/16 11:57:37;;;;;;;85.57;43.67;;;7.60;99.90;;;;;;5045687;28;20035;-85
2023/04/16 12:00:12;;;;;;;72.38;39.88;;;7.70;99.90;;;;;;5050481;28;20037;-80
2023/04/16 12:02:43;;;;;;;83.63;43.42;;;7.70;99.90;;;;;;5039651;28;20036;-81
2023/04/16 12:05:29;;;;;;;69.35;39.95;;;7.60;99.90;;;;;;5039140;28;20257;-81
2023/04/16 12:07:59;;;;;;;79.93;42.50;;;7.70;99.90;;;;;;5037612;28;20102;-81
2023/04/16 12:10:26;;;;;;;71.47;40.13;;;7.70;99.90;;;;;;5046708;28;20675;-80
2023/04/16 12:12:51;;;;;;;74.18;39.55;;;7.70;99.90;;;;;;5041385;28;20104;-80
2023/04/16 12:15:17;;;;;;;70.47;40.72;;;7.70;99.90;;;;;;5032973;28;20160;-81
2023/04/16 12:17:42;;;;;;;84.07;43.50;;;7.70;99.90;;;;;;5040146;28;20042;-81
2023/04/16 12:20:10;;;;;;;80.70;44.85;;;7.70;99.90;;;;;;5050307;28;20032;-80
2023/04/16 12:22:38;;;;;;;81.13;44.67;;;7.80;99.90;;;;;;5038428;28;20465;-81
2023/04/16 12:25:18;;;;;;;77.15;43.88;;;7.70;99.90;;;;;;5041446;28;20162;-80
2023/04/16 12:27:54;;;;;;;77.15;43.60;;;7.70;99.90;;;;;;5042638;28;20067;-81
2023/04/16 12:30:25;;;;;;;79.53;42.30;;;7.70;99.90;;;;;;5034761;28;20064;-81
2023/04/16 12:33:17;;;;;;;91.70;47.33;;;7.70;99.90;;;;;;5047345;28;20086;-81
2023/04/16 12:35:43;;;;;;;87.95;46.28;;;7.70;99.90;;;;;;5041544;28;20052;-81
2023/04/16 12:38:11;;;;;;;85.55;44.50;;;7.70;99.90;;;;;;5042994;28;20021;-80
2023/04/16 12:40:37;;;;;;;89.32;47.97;;;7.70;99.90;;;;;;5031675;28;20036;-81
2023/04/16 12:43:02;;;;;;;92.35;49.17;;;7.70;99.90;;;;;;5045453;28;20389;-80
2023/04/16 12:45:28;;;;;;;99.88;48.03;;;7.80;99.90;;;;;;5047776;28;20029;-81
2023/04/16 12:47:55;;;;;;;97.85;48.10;;;7.70;99.90;;;;;;5055307;28;20028;-81
2023/04/16 12:50:21;;;;;;;97.45;46.30;;;7.80;99.90;;;;;;5039298;28;20024;-81
2023/04/16 12:52:47;;;;;;;86.88;44.22;;;7.70;99.90;;;;;;5049744;28;20024;-80
2023/04/16 12:55:13;;;;;;;86.70;45.75;;;7.80;99.90;;;;;;5040840;28;20037;-81
2023/04/16 12:57:39;;;;;;;77.72;42.03;;;7.80;99.90;;;;;;5055873;28;20028;-81
2023/04/16 13:00:09;;;;;;;93.30;45.35;;;7.70;99.90;;;;;;5044743;28;20037;-82
2023/04/16 13:02:35;;;;;;;88.05;44.17;;;7.80;99.90;;;;;;5044761;28;20037;-81
2023/04/16 13:05:01;;;;;;;79.88;43.35;;;7.70;99.90;;;;;;5043772;28;20059;-81
2023/04/16 13:07:27;;;;;;;89.82;45.05;;;7.80;99.90;;;;;;5050742;28;20047;-81
2023/04/16 13:09:52;;;;;;;83.15;43.30;;;7.80;99.90;;;;;;5037649;28;20444;-79
2023/04/16 13:12:21;;;;;;;93.50;46.55;;;7.80;99.90;;;;;;5056891;28;20115;-80